Gazpromneft East — UBOF4 — position and weather

sailwx.info

Track history (hours):
 
Tides and Currents Weather Stations Pressure Air Temp Water Temp Dewpoint Dewpoint Depression Visibility Wind Speed Wind Dir Waves Ship Positions

Gazpromneft East

Last reported at 2015-Sep-02 17:13 UTC. Time now 2015-Sep-05 07:47 UTC.
Position N 60°00' E 029°37'.

Length 79 m; draft 5.3 m.

MMSI: 273335320.

Date/timePositionNaut miles runAvg speedWind from/ knotsBaromVisibWave heightAir tempDewpointWater temp
2015-Sep-02 17:13N 60°00' E 029°37'6 8.5
2015-Sep-02 16:33N 59°57' E 029°47'2 0.3
2015-Sep-02 11:21N 59°56' E 029°46'2 0.5
2015-Sep-02 06:33N 59°58' E 029°47'  
2015-Aug-28 17:33N 59°60' E 029°40'5 5.1
2015-Aug-28 16:33N 59°56' E 029°46'0 0.0
2015-Aug-28 15:33N 59°56' E 029°46'0 0.0
2015-Aug-28 14:33N 59°56' E 029°46'0 0.0
2015-Aug-28 13:33N 59°56' E 029°46'0 0.0
2015-Aug-28 12:28N 59°56' E 029°46'0 0.0
2015-Aug-28 11:25N 59°56' E 029°46'0 0.0
2015-Aug-28 10:32N 59°56' E 029°46'0 0.0
2015-Aug-28 09:33N 59°56' E 029°46'0 0.0
2015-Aug-28 08:33N 59°56' E 029°46'0 0.0
2015-Aug-28 07:32N 59°56' E 029°46'0 0.0
2015-Aug-28 06:33N 59°56' E 029°46'3 3.1
2015-Aug-28 05:33N 59°59' E 029°45'  
2015-Aug-24 08:33N 59°59' E 029°44'1111.2
2015-Aug-24 07:33N 59°54' E 030°05'5 4.6
2015-Aug-24 06:33N 59°53' E 030°13'0 0.0
2015-Aug-24 05:33N 59°53' E 030°13'0 0.1
2015-Aug-24 04:33N 59°53' E 030°14'0 0.0
2015-Aug-24 03:33N 59°53' E 030°14'0 0.0
2015-Aug-24 02:33N 59°53' E 030°14'0 0.0
2015-Aug-24 01:33N 59°53' E 030°14'0 0.0
2015-Aug-24 00:33N 59°53' E 030°14'0 0.0
2015-Aug-23 23:33N 59°53' E 030°14'0 0.0
2015-Aug-23 22:33N 59°53' E 030°14'0 0.0
2015-Aug-23 21:33N 59°53' E 030°14'0 0.0
2015-Aug-23 20:33N 59°53' E 030°14'0 0.0
2015-Aug-23 19:33N 59°53' E 030°14'0 0.0
2015-Aug-23 18:33N 59°53' E 030°14'0 0.0
2015-Aug-23 17:33N 59°53' E 030°14'  
Track history (hours):
 
Tides and Currents Weather Stations Pressure Air Temp Water Temp Dewpoint Dewpoint Depression Visibility Wind Speed Wind Dir Waves Ship Positions

Gazpromneft East

Last reported at 2015-Sep-02 17:13 UTC. Time now 2015-Sep-05 07:47 UTC.
Position N 60°00' E 029°37'.

Length 79 m; draft 5.3 m.

MMSI: 273335320.

Date/timePositionNaut miles runAvg speedWind from/ knotsBaromVisibWave heightAir tempDewpointWater temp
2015-Sep-02 17:13N 60°00' E 029°37'6 8.5
2015-Sep-02 16:33N 59°57' E 029°47'2 0.3
2015-Sep-02 11:21N 59°56' E 029°46'2 0.5
2015-Sep-02 06:33N 59°58' E 029°47'  
2015-Aug-28 17:33N 59°60' E 029°40'5 5.1
2015-Aug-28 16:33N 59°56' E 029°46'0 0.0
2015-Aug-28 15:33N 59°56' E 029°46'0 0.0
2015-Aug-28 14:33N 59°56' E 029°46'0 0.0
2015-Aug-28 13:33N 59°56' E 029°46'0 0.0
2015-Aug-28 12:28N 59°56' E 029°46'0 0.0
2015-Aug-28 11:25N 59°56' E 029°46'0 0.0
2015-Aug-28 10:32N 59°56' E 029°46'0 0.0
2015-Aug-28 09:33N 59°56' E 029°46'0 0.0
2015-Aug-28 08:33N 59°56' E 029°46'0 0.0
2015-Aug-28 07:32N 59°56' E 029°46'0 0.0
2015-Aug-28 06:33N 59°56' E 029°46'3 3.1
2015-Aug-28 05:33N 59°59' E 029°45'  
2015-Aug-24 08:33N 59°59' E 029°44'1111.2
2015-Aug-24 07:33N 59°54' E 030°05'5 4.6
2015-Aug-24 06:33N 59°53' E 030°13'0 0.0
2015-Aug-24 05:33N 59°53' E 030°13'0 0.1
2015-Aug-24 04:33N 59°53' E 030°14'0 0.0
2015-Aug-24 03:33N 59°53' E 030°14'0 0.0
2015-Aug-24 02:33N 59°53' E 030°14'0 0.0
2015-Aug-24 01:33N 59°53' E 030°14'0 0.0
2015-Aug-24 00:33N 59°53' E 030°14'0 0.0
2015-Aug-23 23:33N 59°53' E 030°14'0 0.0
2015-Aug-23 22:33N 59°53' E 030°14'0 0.0
2015-Aug-23 21:33N 59°53' E 030°14'0 0.0
2015-Aug-23 20:33N 59°53' E 030°14'0 0.0
2015-Aug-23 19:33N 59°53' E 030°14'0 0.0
2015-Aug-23 18:33N 59°53' E 030°14'0 0.0
2015-Aug-23 17:33N 59°53' E 030°14'  

Dump ship's entire track history